sensor_id;sensor_type;location;lat;lon;timestamp;temperature;humidity
51950;DHT22;37974;53.218;6.640;2022-12-07T00:02:08;3.70;99.90
51950;DHT22;37974;53.218;6.640;2022-12-07T00:04:34;3.90;99.90
51950;DHT22;37974;53.218;6.640;2022-12-07T00:06:59;3.70;99.90
51950;DHT22;37974;53.218;6.640;2022-12-07T00:09:25;3.50;99.90
51950;DHT22;37974;53.218;6.640;2022-12-07T00:11:51;3.80;99.90
51950;DHT22;37974;53.218;6.640;2022-12-07T00:14:18;4.30;99.90
51950;DHT22;37974;53.218;6.640;2022-12-07T00:16:44;4.30;99.90
51950;DHT22;37974;53.218;6.640;2022-12-07T00:19:11;4.10;99.90
51950;DHT22;37974;53.218;6.640;2022-12-07T00:21:37;4.20;99.90
51950;DHT22;37974;53.218;6.640;2022-12-07T00:24:04;3.90;99.90
51950;DHT22;37974;53.218;6.640;2022-12-07T00:26:32;3.40;99.90
51950;DHT22;37974;53.218;6.640;2022-12-07T00:29:02;3.60;99.90
51950;DHT22;37974;53.218;6.640;2022-12-07T00:31:30;3.30;99.90
51950;DHT22;37974;53.218;6.640;2022-12-07T00:33:57;3.30;99.90
51950;DHT22;37974;53.218;6.640;2022-12-07T00:36:24;3.80;99.90
51950;DHT22;37974;53.218;6.640;2022-12-07T00:38:50;3.90;99.90
51950;DHT22;37974;53.218;6.640;2022-12-07T00:41:19;3.40;99.90
51950;DHT22;37974;53.218;6.640;2022-12-07T00:43:46;3.50;99.90
51950;DHT22;37974;53.218;6.640;2022-12-07T00:46:12;3.80;99.90
51950;DHT22;37974;53.218;6.640;2022-12-07T00:48:39;4.40;99.90
51950;DHT22;37974;53.218;6.640;2022-12-07T00:51:05;4.10;99.90
51950;DHT22;37974;53.218;6.640;2022-12-07T00:53:33;3.60;99.90
51950;DHT22;37974;53.218;6.640;2022-12-07T00:56:05;4.50;99.90
51950;DHT22;37974;53.218;6.640;2022-12-07T00:58:31;3.70;99.90
51950;DHT22;37974;53.218;6.640;2022-12-07T01:01:00;4.40;99.90
51950;DHT22;37974;53.218;6.640;2022-12-07T01:03:27;4.70;99.90
51950;DHT22;37974;53.218;6.640;2022-12-07T01:05:54;4.50;99.90
51950;DHT22;37974;53.218;6.640;2022-12-07T01:08:21;3.90;99.90
51950;DHT22;37974;53.218;6.640;2022-12-07T01:10:47;5.00;99.90
51950;DHT22;37974;53.218;6.640;2022-12-07T01:13:13;4.80;99.90
51950;DHT22;37974;53.218;6.640;2022-12-07T01:15:41;4.60;99.90
51950;DHT22;37974;53.218;6.640;2022-12-07T01:18:07;4.20;99.90
51950;DHT22;37974;53.218;6.640;2022-12-07T01:20:33;4.60;99.90
51950;DHT22;37974;53.218;6.640;2022-12-07T01:22:59;4.50;99.90
51950;DHT22;37974;53.218;6.640;2022-12-07T01:25:25;3.90;99.90
51950;DHT22;37974;53.218;6.640;2022-12-07T01:27:50;3.50;99.90
51950;DHT22;37974;53.218;6.640;2022-12-07T01:30:16;4.50;99.90
51950;DHT22;37974;53.218;6.640;2022-12-07T01:32:42;3.80;99.90
51950;DHT22;37974;53.218;6.640;2022-12-07T01:35:08;3.70;99.90
51950;DHT22;37974;53.218;6.640;2022-12-07T01:37:36;4.30;99.90
51950;DHT22;37974;53.218;6.640;2022-12-07T01:40:03;4.50;99.90
51950;DHT22;37974;53.218;6.640;2022-12-07T01:42:29;3.80;99.90
51950;DHT22;37974;53.218;6.640;2022-12-07T01:45:31;4.60;99.90
51950;DHT22;37974;53.218;6.640;2022-12-07T01:47:59;4.00;99.90
51950;DHT22;37974;53.218;6.640;2022-12-07T01:50:27;4.50;99.90
51950;DHT22;37974;53.218;6.640;2022-12-07T01:52:56;5.00;99.90
51950;DHT22;37974;53.218;6.640;2022-12-07T01:55:23;4.10;99.90
51950;DHT22;37974;53.218;6.640;2022-12-07T01:57:52;4.00;99.90
51950;DHT22;37974;53.218;6.640;2022-12-07T02:00:18;3.90;99.90
51950;DHT22;37974;53.218;6.640;2022-12-07T02:05:14;3.90;99.90
51950;DHT22;37974;53.218;6.640;2022-12-07T02:07:40;4.00;99.90
51950;DHT22;37974;53.218;6.640;2022-12-07T02:10:17;4.60;99.90
51950;DHT22;37974;53.218;6.640;2022-12-07T02:12:45;3.70;99.90
51950;DHT22;37974;53.218;6.640;2022-12-07T02:15:12;4.30;99.90
51950;DHT22;37974;53.218;6.640;2022-12-07T02:17:51;4.20;99.90
51950;DHT22;37974;53.218;6.640;2022-12-07T02:20:30;3.40;99.90
51950;DHT22;37974;53.218;6.640;2022-12-07T02:23:16;3.80;99.90
51950;DHT22;37974;53.218;6.640;2022-12-07T02:26:02;3.20;99.90
51950;DHT22;37974;53.218;6.640;2022-12-07T02:28:35;3.00;99.90
51950;DHT22;37974;53.218;6.640;2022-12-07T02:31:12;3.60;99.90
51950;DHT22;37974;53.218;6.640;2022-12-07T02:33:45;2.70;99.90
51950;DHT22;37974;53.218;6.640;2022-12-07T02:36:17;2.60;99.90
51950;DHT22;37974;53.218;6.640;2022-12-07T02:39:01;2.60;99.90
51950;DHT22;37974;53.218;6.640;2022-12-07T02:41:42;2.60;99.90
51950;DHT22;37974;53.218;6.640;2022-12-07T02:44:11;2.50;99.90
51950;DHT22;37974;53.218;6.640;2022-12-07T02:46:43;2.50;99.90
51950;DHT22;37974;53.218;6.640;2022-12-07T02:49:10;3.20;99.90
51950;DHT22;37974;53.218;6.640;2022-12-07T02:51:42;2.70;99.90
51950;DHT22;37974;53.218;6.640;2022-12-07T02:54:13;3.90;99.90
51950;DHT22;37974;53.218;6.640;2022-12-07T03:07:06;3.40;99.90
51950;DHT22;37974;53.218;6.640;2022-12-07T03:09:43;3.90;99.90
51950;DHT22;37974;53.218;6.640;2022-12-07T03:12:16;4.30;99.90
51950;DHT22;37974;53.218;6.640;2022-12-07T03:14:58;4.50;99.90
51950;DHT22;37974;53.218;6.640;2022-12-07T03:17:27;3.60;99.90
51950;DHT22;37974;53.218;6.640;2022-12-07T03:19:56;4.50;99.90
51950;DHT22;37974;53.218;6.640;2022-12-07T03:22:23;4.20;99.90
51950;DHT22;37974;53.218;6.640;2022-12-07T03:24:53;4.00;99.90
51950;DHT22;37974;53.218;6.640;2022-12-07T03:27:24;4.40;99.90
51950;DHT22;37974;53.218;6.640;2022-12-07T03:30:02;4.60;99.90
51950;DHT22;37974;53.218;6.640;2022-12-07T03:32:34;4.20;99.90
51950;DHT22;37974;53.218;6.640;2022-12-07T03:35:08;4.10;99.90
51950;DHT22;37974;53.218;6.640;2022-12-07T03:40:16;4.20;99.90
51950;DHT22;37974;53.218;6.640;2022-12-07T03:42:43;3.60;99.90
51950;DHT22;37974;53.218;6.640;2022-12-07T03:45:10;4.20;99.90
51950;DHT22;37974;53.218;6.640;2022-12-07T03:50:37;3.70;99.90
51950;DHT22;37974;53.218;6.640;2022-12-07T03:53:10;3.70;99.90
51950;DHT22;37974;53.218;6.640;2022-12-07T03:55:39;4.30;99.90
51950;DHT22;37974;53.218;6.640;2022-12-07T03:58:12;4.60;99.90
51950;DHT22;37974;53.218;6.640;2022-12-07T04:00:38;4.30;99.90
51950;DHT22;37974;53.218;6.640;2022-12-07T04:03:05;3.70;99.90
51950;DHT22;37974;53.218;6.640;2022-12-07T04:05:31;4.20;99.90
51950;DHT22;37974;53.218;6.640;2022-12-07T04:07:56;3.60;99.90
51950;DHT22;37974;53.218;6.640;2022-12-07T04:10:22;4.30;99.90
51950;DHT22;37974;53.218;6.640;2022-12-07T04:12:48;4.30;99.90
51950;DHT22;37974;53.218;6.640;2022-12-07T04:15:14;4.50;99.90
51950;DHT22;37974;53.218;6.640;2022-12-07T04:17:39;3.30;99.90
51950;DHT22;37974;53.218;6.640;2022-12-07T04:20:06;4.10;99.90
51950;DHT22;37974;53.218;6.640;2022-12-07T04:22:32;3.10;99.90
51950;DHT22;37974;53.218;6.640;2022-12-07T04:24:57;4.40;99.90
51950;DHT22;37974;53.218;6.640;2022-12-07T04:27:23;3.70;99.90
51950;DHT22;37974;53.218;6.640;2022-12-07T04:29:48;3.40;99.90
51950;DHT22;37974;53.218;6.640;2022-12-07T04:32:14;3.10;99.90
51950;DHT22;37974;53.218;6.640;2022-12-07T04:34:40;3.80;99.90
51950;DHT22;37974;53.218;6.640;2022-12-07T04:37:05;4.00;99.90
51950;DHT22;37974;53.218;6.640;2022-12-07T04:39:32;3.40;99.90
51950;DHT22;37974;53.218;6.640;2022-12-07T04:41:59;3.90;99.90
51950;DHT22;37974;53.218;6.640;2022-12-07T04:44:25;3.80;99.90
51950;DHT22;37974;53.218;6.640;2022-12-07T04:46:52;3.70;99.90
51950;DHT22;37974;53.218;6.640;2022-12-07T04:49:19;4.50;99.90
51950;DHT22;37974;53.218;6.640;2022-12-07T04:51:45;4.10;99.90
51950;DHT22;37974;53.218;6.640;2022-12-07T04:54:11;4.40;99.90
51950;DHT22;37974;53.218;6.640;2022-12-07T04:56:37;3.90;99.90
51950;DHT22;37974;53.218;6.640;2022-12-07T04:59:04;4.10;99.90
51950;DHT22;37974;53.218;6.640;2022-12-07T05:01:30;3.80;99.90
51950;DHT22;37974;53.218;6.640;2022-12-07T05:03:57;3.10;99.90
51950;DHT22;37974;53.218;6.640;2022-12-07T05:06:23;3.70;99.90
51950;DHT22;37974;53.218;6.640;2022-12-07T05:08:48;4.10;99.90
51950;DHT22;37974;53.218;6.640;2022-12-07T05:11:14;3.30;99.90
51950;DHT22;37974;53.218;6.640;2022-12-07T05:14:03;3.30;99.90
51950;DHT22;37974;53.218;6.640;2022-12-07T05:16:29;3.20;99.90
51950;DHT22;37974;53.218;6.640;2022-12-07T05:18:55;2.90;99.90
51950;DHT22;37974;53.218;6.640;2022-12-07T05:21:21;2.80;99.90
51950;DHT22;37974;53.218;6.640;2022-12-07T05:23:47;3.50;99.90
51950;DHT22;37974;53.218;6.640;2022-12-07T05:26:12;3.00;99.90
51950;DHT22;37974;53.218;6.640;2022-12-07T05:28:38;3.00;99.90
51950;DHT22;37974;53.218;6.640;2022-12-07T05:31:04;2.90;99.90
51950;DHT22;37974;53.218;6.640;2022-12-07T05:33:30;1.90;99.90
51950;DHT22;37974;53.218;6.640;2022-12-07T05:35:55;2.50;99.90
51950;DHT22;37974;53.218;6.640;2022-12-07T05:38:21;1.80;99.90
51950;DHT22;37974;53.218;6.640;2022-12-07T05:40:47;2.90;99.90
51950;DHT22;37974;53.218;6.640;2022-12-07T05:43:12;1.60;99.90
51950;DHT22;37974;53.218;6.640;2022-12-07T05:45:38;2.40;99.90
51950;DHT22;37974;53.218;6.640;2022-12-07T05:48:04;2.30;99.90
51950;DHT22;37974;53.218;6.640;2022-12-07T05:50:29;1.70;99.90
51950;DHT22;37974;53.218;6.640;2022-12-07T05:52:55;2.70;99.90
51950;DHT22;37974;53.218;6.640;2022-12-07T05:55:21;2.40;99.90
51950;DHT22;37974;53.218;6.640;2022-12-07T05:57:46;2.40;99.90
51950;DHT22;37974;53.218;6.640;2022-12-07T06:00:31;2.60;99.90
51950;DHT22;37974;53.218;6.640;2022-12-07T06:02:56;1.00;99.90
51950;DHT22;37974;53.218;6.640;2022-12-07T06:05:22;1.70;99.90
51950;DHT22;37974;53.218;6.640;2022-12-07T06:07:48;1.70;99.90
51950;DHT22;37974;53.218;6.640;2022-12-07T06:10:14;1.90;99.90
51950;DHT22;37974;53.218;6.640;2022-12-07T06:12:39;1.90;99.90
51950;DHT22;37974;53.218;6.640;2022-12-07T06:15:08;1.20;99.90
51950;DHT22;37974;53.218;6.640;2022-12-07T06:17:35;1.90;99.90
51950;DHT22;37974;53.218;6.640;2022-12-07T06:20:01;2.00;99.90
51950;DHT22;37974;53.218;6.640;2022-12-07T06:22:26;2.80;99.90
51950;DHT22;37974;53.218;6.640;2022-12-07T06:24:52;3.00;99.90
51950;DHT22;37974;53.218;6.640;2022-12-07T06:27:18;2.50;99.90
51950;DHT22;37974;53.218;6.640;2022-12-07T06:29:43;2.90;99.90
51950;DHT22;37974;53.218;6.640;2022-12-07T06:32:09;3.60;99.90
51950;DHT22;37974;53.218;6.640;2022-12-07T06:34:35;3.10;99.90
51950;DHT22;37974;53.218;6.640;2022-12-07T06:37:01;2.60;99.90
51950;DHT22;37974;53.218;6.640;2022-12-07T06:39:27;3.40;99.90
51950;DHT22;37974;53.218;6.640;2022-12-07T06:41:54;3.30;99.90
51950;DHT22;37974;53.218;6.640;2022-12-07T06:44:20;3.50;99.90
51950;DHT22;37974;53.218;6.640;2022-12-07T06:46:47;2.90;99.90
51950;DHT22;37974;53.218;6.640;2022-12-07T06:49:13;2.50;99.90
51950;DHT22;37974;53.218;6.640;2022-12-07T06:51:39;3.20;99.90
51950;DHT22;37974;53.218;6.640;2022-12-07T06:54:12;2.30;99.90
51950;DHT22;37974;53.218;6.640;2022-12-07T06:56:38;2.70;99.90
51950;DHT22;37974;53.218;6.640;2022-12-07T06:59:05;2.20;99.90
51950;DHT22;37974;53.218;6.640;2022-12-07T07:01:32;3.20;99.90
51950;DHT22;37974;53.218;6.640;2022-12-07T07:03:58;3.30;99.90
51950;DHT22;37974;53.218;6.640;2022-12-07T07:06:24;3.10;99.90
51950;DHT22;37974;53.218;6.640;2022-12-07T07:08:50;1.50;99.90
51950;DHT22;37974;53.218;6.640;2022-12-07T07:11:16;2.30;99.90
51950;DHT22;37974;53.218;6.640;2022-12-07T07:13:42;2.30;99.90
51950;DHT22;37974;53.218;6.640;2022-12-07T07:16:08;2.50;99.90
51950;DHT22;37974;53.218;6.640;2022-12-07T07:18:34;3.90;99.90
51950;DHT22;37974;53.218;6.640;2022-12-07T07:21:00;3.20;99.90
51950;DHT22;37974;53.218;6.640;2022-12-07T07:23:26;3.40;99.90
51950;DHT22;37974;53.218;6.640;2022-12-07T07:25:52;2.70;99.90
51950;DHT22;37974;53.218;6.640;2022-12-07T07:28:18;2.80;99.90
51950;DHT22;37974;53.218;6.640;2022-12-07T07:30:44;2.80;99.90
51950;DHT22;37974;53.218;6.640;2022-12-07T07:33:11;3.60;99.90
51950;DHT22;37974;53.218;6.640;2022-12-07T07:35:37;4.00;99.90
51950;DHT22;37974;53.218;6.640;2022-12-07T07:38:03;3.70;99.90
51950;DHT22;37974;53.218;6.640;2022-12-07T07:40:29;3.90;99.90
51950;DHT22;37974;53.218;6.640;2022-12-07T07:42:55;3.20;99.90
51950;DHT22;37974;53.218;6.640;2022-12-07T07:45:23;4.30;99.90
51950;DHT22;37974;53.218;6.640;2022-12-07T07:47:49;4.20;99.90
51950;DHT22;37974;53.218;6.640;2022-12-07T07:50:15;3.30;99.90
51950;DHT22;37974;53.218;6.640;2022-12-07T07:52:42;3.00;99.90
51950;DHT22;37974;53.218;6.640;2022-12-07T07:55:08;3.70;99.90
51950;DHT22;37974;53.218;6.640;2022-12-07T07:57:36;3.80;99.90
51950;DHT22;37974;53.218;6.640;2022-12-07T08:00:05;4.10;99.90
51950;DHT22;37974;53.218;6.640;2022-12-07T08:02:31;3.00;99.90
51950;DHT22;37974;53.218;6.640;2022-12-07T08:04:57;2.90;99.90
51950;DHT22;37974;53.218;6.640;2022-12-07T08:07:22;4.00;99.90
51950;DHT22;37974;53.218;6.640;2022-12-07T08:09:48;2.70;99.90
51950;DHT22;37974;53.218;6.640;2022-12-07T08:12:14;2.90;99.90
51950;DHT22;37974;53.218;6.640;2022-12-07T08:14:39;3.50;99.90
51950;DHT22;37974;53.218;6.640;2022-12-07T08:17:05;3.90;99.90
51950;DHT22;37974;53.218;6.640;2022-12-07T08:19:31;2.70;99.90
51950;DHT22;37974;53.218;6.640;2022-12-07T08:21:57;2.60;99.90
51950;DHT22;37974;53.218;6.640;2022-12-07T08:24:23;3.10;99.90
51950;DHT22;37974;53.218;6.640;2022-12-07T08:26:50;2.40;99.90
51950;DHT22;37974;53.218;6.640;2022-12-07T08:29:16;2.30;99.90
51950;DHT22;37974;53.218;6.640;2022-12-07T08:31:42;2.90;99.90
51950;DHT22;37974;53.218;6.640;2022-12-07T08:34:10;2.70;99.90
51950;DHT22;37974;53.218;6.640;2022-12-07T08:36:36;2.40;99.90
51950;DHT22;37974;53.218;6.640;2022-12-07T08:39:02;3.20;99.90
51950;DHT22;37974;53.218;6.640;2022-12-07T08:41:28;2.40;99.90
51950;DHT22;37974;53.218;6.640;2022-12-07T08:43:54;2.60;99.90
51950;DHT22;37974;53.218;6.640;2022-12-07T08:46:25;2.70;99.90
51950;DHT22;37974;53.218;6.640;2022-12-07T08:48:53;2.90;99.90
51950;DHT22;37974;53.218;6.640;2022-12-07T08:51:21;4.00;99.90
51950;DHT22;37974;53.218;6.640;2022-12-07T08:53:47;4.20;99.90
51950;DHT22;37974;53.218;6.640;2022-12-07T08:56:13;3.90;99.90
51950;DHT22;37974;53.218;6.640;2022-12-07T08:58:42;4.40;99.90
51950;DHT22;37974;53.218;6.640;2022-12-07T09:01:08;3.30;99.90
51950;DHT22;37974;53.218;6.640;2022-12-07T09:03:33;3.50;99.90
51950;DHT22;37974;53.218;6.640;2022-12-07T09:06:00;3.80;99.90
51950;DHT22;37974;53.218;6.640;2022-12-07T09:08:31;3.20;99.90
51950;DHT22;37974;53.218;6.640;2022-12-07T09:10:57;4.30;99.90
51950;DHT22;37974;53.218;6.640;2022-12-07T09:13:23;3.70;99.90
51950;DHT22;37974;53.218;6.640;2022-12-07T09:15:49;3.80;99.90
51950;DHT22;37974;53.218;6.640;2022-12-07T09:18:14;4.60;99.90
51950;DHT22;37974;53.218;6.640;2022-12-07T09:20:40;4.80;99.90
51950;DHT22;37974;53.218;6.640;2022-12-07T09:23:06;4.40;99.90
51950;DHT22;37974;53.218;6.640;2022-12-07T09:25:33;4.20;99.90
51950;DHT22;37974;53.218;6.640;2022-12-07T09:27:59;4.90;99.90
51950;DHT22;37974;53.218;6.640;2022-12-07T09:30:26;4.60;99.90
51950;DHT22;37974;53.218;6.640;2022-12-07T09:32:54;4.30;99.90
51950;DHT22;37974;53.218;6.640;2022-12-07T09:35:20;3.80;99.90
51950;DHT22;37974;53.218;6.640;2022-12-07T09:37:45;4.50;99.90
51950;DHT22;37974;53.218;6.640;2022-12-07T09:40:12;5.70;99.90
51950;DHT22;37974;53.218;6.640;2022-12-07T09:42:42;4.60;99.90
51950;DHT22;37974;53.218;6.640;2022-12-07T09:45:14;5.70;99.90
51950;DHT22;37974;53.218;6.640;2022-12-07T09:47:40;4.70;99.90
51950;DHT22;37974;53.218;6.640;2022-12-07T09:50:13;5.70;99.90
51950;DHT22;37974;53.218;6.640;2022-12-07T09:52:40;4.70;99.90
51950;DHT22;37974;53.218;6.640;2022-12-07T09:55:12;4.80;99.90
51950;DHT22;37974;53.218;6.640;2022-12-07T09:57:38;5.90;99.90
51950;DHT22;37974;53.218;6.640;2022-12-07T10:00:11;4.90;99.90
51950;DHT22;37974;53.218;6.640;2022-12-07T10:02:41;5.00;99.90
51950;DHT22;37974;53.218;6.640;2022-12-07T10:05:14;5.80;99.90
51950;DHT22;37974;53.218;6.640;2022-12-07T10:07:41;5.90;99.90
51950;DHT22;37974;53.218;6.640;2022-12-07T10:10:14;5.60;99.90
51950;DHT22;37974;53.218;6.640;2022-12-07T10:12:53;5.60;99.90
51950;DHT22;37974;53.218;6.640;2022-12-07T10:15:19;5.00;99.90
51950;DHT22;37974;53.218;6.640;2022-12-07T10:17:50;5.00;99.90
51950;DHT22;37974;53.218;6.640;2022-12-07T10:20:20;5.60;99.90
51950;DHT22;37974;53.218;6.640;2022-12-07T10:22:55;5.70;99.90
51950;DHT22;37974;53.218;6.640;2022-12-07T10:25:22;5.10;99.90
51950;DHT22;37974;53.218;6.640;2022-12-07T10:30:28;5.70;99.90
51950;DHT22;37974;53.218;6.640;2022-12-07T10:32:53;5.10;99.90
51950;DHT22;37974;53.218;6.640;2022-12-07T10:37:51;5.20;99.90
51950;DHT22;37974;53.218;6.640;2022-12-07T10:40:26;5.60;99.90
51950;DHT22;37974;53.218;6.640;2022-12-07T10:48:24;5.30;99.90
51950;DHT22;37974;53.218;6.640;2022-12-07T10:51:12;5.30;99.90
51950;DHT22;37974;53.218;6.640;2022-12-07T10:53:59;5.30;99.90
51950;DHT22;37974;53.218;6.640;2022-12-07T10:56:49;5.40;99.90
51950;DHT22;37974;53.218;6.640;2022-12-07T11:02:20;5.40;99.90
51950;DHT22;37974;53.218;6.640;2022-12-07T11:05:06;5.40;99.90
51950;DHT22;37974;53.218;6.640;2022-12-07T11:07:47;5.30;99.90
51950;DHT22;37974;53.218;6.640;2022-12-07T11:13:16;5.10;99.90
51950;DHT22;37974;53.218;6.640;2022-12-07T11:18:27;5.00;99.90
51950;DHT22;37974;53.218;6.640;2022-12-07T11:21:04;4.90;99.90
51950;DHT22;37974;53.218;6.640;2022-12-07T11:24:02;5.10;99.90
51950;DHT22;37974;53.218;6.640;2022-12-07T11:29:34;4.90;99.90
51950;DHT22;37974;53.218;6.640;2022-12-07T11:37:25;5.00;99.90
51950;DHT22;37974;53.218;6.640;2022-12-07T11:39:59;5.60;99.90
51950;DHT22;37974;53.218;6.640;2022-12-07T11:42:29;5.50;99.90
51950;DHT22;37974;53.218;6.640;2022-12-07T11:45:09;5.00;99.90
51950;DHT22;37974;53.218;6.640;2022-12-07T11:47:59;5.10;99.90
51950;DHT22;37974;53.218;6.640;2022-12-07T11:50:36;5.20;99.90
51950;DHT22;37974;53.218;6.640;2022-12-07T11:53:14;5.30;99.90
51950;DHT22;37974;53.218;6.640;2022-12-07T11:58:39;5.50;99.90
51950;DHT22;37974;53.218;6.640;2022-12-07T12:04:01;5.40;99.90
51950;DHT22;37974;53.218;6.640;2022-12-07T12:06:27;5.30;99.90
51950;DHT22;37974;53.218;6.640;2022-12-07T12:09:02;6.40;99.90
51950;DHT22;37974;53.218;6.640;2022-12-07T12:19:25;5.10;99.90
51950;DHT22;37974;53.218;6.640;2022-12-07T12:21:58;5.90;99.90
51950;DHT22;37974;53.218;6.640;2022-12-07T12:24:28;5.10;99.90
51950;DHT22;37974;53.218;6.640;2022-12-07T12:27:04;5.00;99.90
51950;DHT22;37974;53.218;6.640;2022-12-07T12:29:37;5.70;99.90
51950;DHT22;37974;53.218;6.640;2022-12-07T12:32:13;5.90;99.90
51950;DHT22;37974;53.218;6.640;2022-12-07T12:34:58;5.00;99.90
51950;DHT22;37974;53.218;6.640;2022-12-07T12:42:49;5.40;99.90
51950;DHT22;37974;53.218;6.640;2022-12-07T12:45:27;5.10;99.90
51950;DHT22;37974;53.218;6.640;2022-12-07T12:48:01;5.60;99.90
51950;DHT22;37974;53.218;6.640;2022-12-07T12:50:29;5.20;99.90
51950;DHT22;37974;53.218;6.640;2022-12-07T13:00:46;5.50;99.90
51950;DHT22;37974;53.218;6.640;2022-12-07T13:03:26;5.20;99.90
51950;DHT22;37974;53.218;6.640;2022-12-07T13:06:17;5.30;99.90
51950;DHT22;37974;53.218;6.640;2022-12-07T13:08:44;5.20;99.90
51950;DHT22;37974;53.218;6.640;2022-12-07T13:11:32;5.20;99.90
51950;DHT22;37974;53.218;6.640;2022-12-07T13:17:02;5.00;99.90
51950;DHT22;37974;53.218;6.640;2022-12-07T13:19:53;5.00;99.90
51950;DHT22;37974;53.218;6.640;2022-12-07T13:22:40;4.90;99.90
51950;DHT22;37974;53.218;6.640;2022-12-07T13:25:22;4.90;99.90
51950;DHT22;37974;53.218;6.640;2022-12-07T13:28:02;4.90;99.90
51950;DHT22;37974;53.218;6.640;2022-12-07T13:30:32;4.80;99.90
51950;DHT22;37974;53.218;6.640;2022-12-07T13:33:14;6.00;99.90
51950;DHT22;37974;53.218;6.640;2022-12-07T13:35:42;4.80;99.90
51950;DHT22;37974;53.218;6.640;2022-12-07T13:38:25;4.70;99.90
51950;DHT22;37974;53.218;6.640;2022-12-07T13:41:02;4.70;99.90
51950;DHT22;37974;53.218;6.640;2022-12-07T13:43:28;4.70;99.90
51950;DHT22;37974;53.218;6.640;2022-12-07T13:45:58;5.70;99.90
51950;DHT22;37974;53.218;6.640;2022-12-07T13:48:32;4.60;99.90
51950;DHT22;37974;53.218;6.640;2022-12-07T13:50:59;4.50;99.90
51950;DHT22;37974;53.218;6.640;2022-12-07T13:53:27;5.20;99.90
51950;DHT22;37974;53.218;6.640;2022-12-07T13:55:56;4.30;99.90
51950;DHT22;37974;53.218;6.640;2022-12-07T13:58:24;4.40;99.90
51950;DHT22;37974;53.218;6.640;2022-12-07T14:00:50;4.20;99.90
51950;DHT22;37974;53.218;6.640;2022-12-07T14:05:44;4.00;99.90
51950;DHT22;37974;53.218;6.640;2022-12-07T14:10:54;4.00;99.90
51950;DHT22;37974;53.218;6.640;2022-12-07T14:13:29;3.90;99.90
51950;DHT22;37974;53.218;6.640;2022-12-07T14:15:56;4.30;99.90
51950;DHT22;37974;53.218;6.640;2022-12-07T14:18:28;3.50;99.90
51950;DHT22;37974;53.218;6.640;2022-12-07T14:21:06;4.50;99.90
51950;DHT22;37974;53.218;6.640;2022-12-07T14:23:31;3.40;99.90
51950;DHT22;37974;53.218;6.640;2022-12-07T14:26:11;4.10;99.90
51950;DHT22;37974;53.218;6.640;2022-12-07T14:28:37;3.30;99.90
51950;DHT22;37974;53.218;6.640;2022-12-07T14:31:07;4.20;99.90
51950;DHT22;37974;53.218;6.640;2022-12-07T14:33:33;3.20;99.90
51950;DHT22;37974;53.218;6.640;2022-12-07T14:35:59;3.20;99.90
51950;DHT22;37974;53.218;6.640;2022-12-07T14:38:25;4.10;99.90
51950;DHT22;37974;53.218;6.640;2022-12-07T14:40:53;4.00;99.90
51950;DHT22;37974;53.218;6.640;2022-12-07T14:43:20;3.60;99.90
51950;DHT22;37974;53.218;6.640;2022-12-07T14:45:46;3.30;99.90
51950;DHT22;37974;53.218;6.640;2022-12-07T14:48:13;3.40;99.90
51950;DHT22;37974;53.218;6.640;2022-12-07T14:50:44;4.40;99.90
51950;DHT22;37974;53.218;6.640;2022-12-07T14:53:14;3.60;99.90
51950;DHT22;37974;53.218;6.640;2022-12-07T14:55:40;3.60;99.90
51950;DHT22;37974;53.218;6.640;2022-12-07T14:58:13;4.60;99.90
51950;DHT22;37974;53.218;6.640;2022-12-07T15:00:39;3.70;99.90
51950;DHT22;37974;53.218;6.640;2022-12-07T15:03:05;3.70;99.90
51950;DHT22;37974;53.218;6.640;2022-12-07T15:05:31;4.60;99.90
51950;DHT22;37974;53.218;6.640;2022-12-07T15:07:58;3.60;99.90
51950;DHT22;37974;53.218;6.640;2022-12-07T15:10:26;3.60;99.90
51950;DHT22;37974;53.218;6.640;2022-12-07T15:12:56;3.80;99.90
51950;DHT22;37974;53.218;6.640;2022-12-07T15:15:42;3.50;99.90
51950;DHT22;37974;53.218;6.640;2022-12-07T15:18:07;4.00;99.90
51950;DHT22;37974;53.218;6.640;2022-12-07T15:20:33;3.50;99.90
51950;DHT22;37974;53.218;6.640;2022-12-07T15:22:59;3.80;99.90
51950;DHT22;37974;53.218;6.640;2022-12-07T15:25:25;3.40;99.90
51950;DHT22;37974;53.218;6.640;2022-12-07T15:27:50;4.30;99.90
51950;DHT22;37974;53.218;6.640;2022-12-07T15:30:16;3.30;99.90
51950;DHT22;37974;53.218;6.640;2022-12-07T15:32:42;3.20;99.90
51950;DHT22;37974;53.218;6.640;2022-12-07T15:35:08;4.30;99.90
51950;DHT22;37974;53.218;6.640;2022-12-07T15:37:33;3.20;99.90
51950;DHT22;37974;53.218;6.640;2022-12-07T15:39:59;3.10;99.90
51950;DHT22;37974;53.218;6.640;2022-12-07T15:42:25;3.10;99.90
51950;DHT22;37974;53.218;6.640;2022-12-07T15:44:51;3.10;99.90
51950;DHT22;37974;53.218;6.640;2022-12-07T15:47:30;3.10;99.90
51950;DHT22;37974;53.218;6.640;2022-12-07T15:49:56;3.20;99.90
51950;DHT22;37974;53.218;6.640;2022-12-07T15:52:21;3.20;99.90
51950;DHT22;37974;53.218;6.640;2022-12-07T15:54:47;2.60;99.90
51950;DHT22;37974;53.218;6.640;2022-12-07T15:57:13;3.30;99.90
51950;DHT22;37974;53.218;6.640;2022-12-07T15:59:39;4.00;99.90
51950;DHT22;37974;53.218;6.640;2022-12-07T16:02:05;3.10;99.90
51950;DHT22;37974;53.218;6.640;2022-12-07T16:04:31;3.70;99.90
51950;DHT22;37974;53.218;6.640;2022-12-07T16:06:59;3.00;99.90
51950;DHT22;37974;53.218;6.640;2022-12-07T16:09:25;2.90;99.90
51950;DHT22;37974;53.218;6.640;2022-12-07T16:11:52;3.90;99.90
51950;DHT22;37974;53.218;6.640;2022-12-07T16:14:20;2.90;99.90
51950;DHT22;37974;53.218;6.640;2022-12-07T16:16:47;2.80;99.90
51950;DHT22;37974;53.218;6.640;2022-12-07T16:19:13;2.90;99.90
51950;DHT22;37974;53.218;6.640;2022-12-07T16:21:39;3.90;99.90
51950;DHT22;37974;53.218;6.640;2022-12-07T16:24:08;3.10;99.90
51950;DHT22;37974;53.218;6.640;2022-12-07T16:26:36;2.90;99.90
51950;DHT22;37974;53.218;6.640;2022-12-07T16:29:04;3.00;99.90
51950;DHT22;37974;53.218;6.640;2022-12-07T16:31:30;3.80;99.90
51950;DHT22;37974;53.218;6.640;2022-12-07T16:33:57;3.00;99.90
51950;DHT22;37974;53.218;6.640;2022-12-07T16:36:24;3.10;99.90
51950;DHT22;37974;53.218;6.640;2022-12-07T16:38:51;3.10;99.90
51950;DHT22;37974;53.218;6.640;2022-12-07T16:41:17;3.10;99.90
51950;DHT22;37974;53.218;6.640;2022-12-07T16:43:43;3.10;99.90
51950;DHT22;37974;53.218;6.640;2022-12-07T16:46:09;3.90;99.90
51950;DHT22;37974;53.218;6.640;2022-12-07T16:48:37;4.00;99.90
51950;DHT22;37974;53.218;6.640;2022-12-07T16:51:06;3.10;99.90
51950;DHT22;37974;53.218;6.640;2022-12-07T16:53:34;3.00;99.90
51950;DHT22;37974;53.218;6.640;2022-12-07T16:56:00;2.90;99.90
51950;DHT22;37974;53.218;6.640;2022-12-07T16:58:27;2.90;99.90
51950;DHT22;37974;53.218;6.640;2022-12-07T17:00:53;2.80;99.90
51950;DHT22;37974;53.218;6.640;2022-12-07T17:03:21;2.80;99.90
51950;DHT22;37974;53.218;6.640;2022-12-07T17:05:49;2.80;99.90
51950;DHT22;37974;53.218;6.640;2022-12-07T17:08:15;2.70;99.90
51950;DHT22;37974;53.218;6.640;2022-12-07T17:10:43;2.70;99.90
51950;DHT22;37974;53.218;6.640;2022-12-07T17:13:09;3.50;99.90
51950;DHT22;37974;53.218;6.640;2022-12-07T17:15:57;1.80;99.90
51950;DHT22;37974;53.218;6.640;2022-12-07T17:18:23;2.80;99.90